Observation data for Tatum on 10/17/2019      Previous  Date       Current Mesonet Observations  Soil Data  Daily Summary Page  Observations in Plain Language
KTAT 170500Z 21004KT 06/00 A3015 RMK A01 T00550004  RH  070%=      5-min Rain = 0
KTAT 170505Z 22005KT 05/00 A3015 RMK A01 T00540004  RH  071%=      5-min Rain = 0
KTAT 170510Z 21005KT 06/01 A3015 RMK A01 T00560005  RH  071%=      5-min Rain = 0
KTAT 170515Z 21005KT 06/01 A3015 RMK A01 T00560005  RH  071%=      5-min Rain = 0
KTAT 170520Z 22005KT 06/01 A3015 RMK A01 T00560006  RH  071%=      5-min Rain = 0
KTAT 170525Z 22005KT 06/01 A3015 RMK A01 T00590006  RH  070%=      5-min Rain = 0
KTAT 170530Z 22005KT 06/01 A3015 RMK A01 T00600006  RH  069%=      5-min Rain = 0
KTAT 170535Z 23005KT 06/01 A3015 RMK A01 T00590006  RH  070%=      5-min Rain = 0
KTAT 170540Z 23004KT 06/01 A3015 RMK A01 T00580007  RH  070%=      5-min Rain = 0
KTAT 170545Z 24005KT 06/01 A3015 RMK A01 T00590008  RH  071%=      5-min Rain = 0
KTAT 170550Z 25005KT 06/01 A3015 RMK A01 T00580007  RH  070%=      5-min Rain = 0
KTAT 170555Z 26005KT 06/01 A3015 RMK A01 T00570007  RH  071%=      5-min Rain = 0
KTAT 170600Z 25005KT 05/01 A3014 RMK A01 T00540006  RH  072%=      5-min Rain = 0
KTAT 170605Z 26005KT 05/01 A3014 RMK A01 T00510005  RH  073%=      5-min Rain = 0
KTAT 170610Z 27006KT 05/00 A3015 RMK A01 T00470004  RH  075%=      5-min Rain = 0
KTAT 170615Z 27005KT 05/01 A3014 RMK A01 T00460005  RH  076%=      5-min Rain = 0
KTAT 170620Z 27005KT 05/01 A3014 RMK A01 T00460005  RH  076%=      5-min Rain = 0
KTAT 170625Z 27005KT 05/01 A3014 RMK A01 T00460005  RH  076%=      5-min Rain = 0
KTAT 170630Z 25006KT 05/01 A3014 RMK A01 T00470005  RH  076%=      5-min Rain = 0
KTAT 170635Z 25006KT 05/01 A3014 RMK A01 T00480005  RH  074%=      5-min Rain = 0
KTAT 170640Z 26006KT 05/01 A3014 RMK A01 T00480005  RH  075%=      5-min Rain = 0
KTAT 170645Z 27006KT 05/01 A3014 RMK A01 T00470005  RH  075%=      5-min Rain = 0
KTAT 170650Z 26005KT 05/01 A3014 RMK A01 T00470005  RH  075%=      5-min Rain = 0
KTAT 170655Z 26005KT 05/01 A3014 RMK A01 T00490005  RH  074%=      5-min Rain = 0
KTAT 170700Z 26005KT 05/01 A3014 RMK A01 T00500005  RH  074%=      5-min Rain = 0
KTAT 170705Z 25004KT 05/01 A3014 RMK A01 T00510005  RH  073%=      5-min Rain = 0
KTAT 170710Z 24005KT 05/00 A3013 RMK A01 T00510004  RH  072%=      5-min Rain = 0
KTAT 170715Z 25005KT 05/00 A3013 RMK A01 T00500004  RH  073%=      5-min Rain = 0
KTAT 170720Z 25005KT 05/01 A3013 RMK A01 T00490005  RH  075%=      5-min Rain = 0
KTAT 170725Z 25006KT 05/01 A3013 RMK A01 T00480005  RH  075%=      5-min Rain = 0
KTAT 170730Z 26006KT 05/01 A3013 RMK A01 T00460005  RH  075%=      5-min Rain = 0
KTAT 170735Z 26007KT 04/01 A3013 RMK A01 T00430005  RH  077%=      5-min Rain = 0
KTAT 170740Z 26006KT 04/01 A3013 RMK A01 T00420005  RH  078%=      5-min Rain = 0
KTAT 170745Z 27006KT 04/00 A3013 RMK A01 T00410004  RH  078%=      5-min Rain = 0
KTAT 170750Z 26006KT 04/00 A3013 RMK A01 T00390004  RH  079%=      5-min Rain = 0
KTAT 170755Z 26006KT 04/00 A3013 RMK A01 T00400004  RH  078%=      5-min Rain = 0
KTAT 170800Z 26005KT 04/00 A3013 RMK A01 T00400003  RH  078%=      5-min Rain = 0
KTAT 170805Z 26005KT 04/00 A3012 RMK A01 T00410004  RH  078%=      5-min Rain = 0
KTAT 170810Z 27006KT 04/00 A3012 RMK A01 T00410003  RH  077%=      5-min Rain = 0
KTAT 170815Z 26006KT 04/00 A3012 RMK A01 T00380003  RH  078%=      5-min Rain = 0
KTAT 170820Z 25006KT 04/00 A3012 RMK A01 T00380004  RH  079%=      5-min Rain = 0
KTAT 170825Z 26006KT 04/00 A3012 RMK A01 T00400004  RH  079%=      5-min Rain = 0
KTAT 170830Z 25007KT 04/01 A3012 RMK A01 T00400005  RH  079%=      5-min Rain = 0
KTAT 170835Z 25006KT 04/01 A3012 RMK A01 T00410006  RH  079%=      5-min Rain = 0
KTAT 170840Z 24006KT 04/01 A3011 RMK A01 T00420006  RH  079%=      5-min Rain = 0
KTAT 170845Z 24005KT 04/01 A3011 RMK A01 T00420006  RH  078%=      5-min Rain = 0
KTAT 170850Z 24005KT 04/01 A3011 RMK A01 T00410006  RH  079%=      5-min Rain = 0
KTAT 170855Z 24004KT 04/01 A301 RMK A01 T00410005  RH  079%=      5-min Rain = 0
KTAT 170900Z 24005KT 04/01 A301 RMK A01 T00400005  RH  079%=      5-min Rain = 0
KTAT 170905Z 24004KT 04/01 A301 RMK A01 T00400006  RH  080%=      5-min Rain = 0
KTAT 170910Z 24004KT 04/01 A3009 RMK A01 T00400005  RH  079%=      5-min Rain = 0
KTAT 170915Z 24004KT 04/01 A3009 RMK A01 T00400005  RH  079%=      5-min Rain = 0
KTAT 170920Z 23004KT 04/01 A3009 RMK A01 T00400005  RH  079%=      5-min Rain = 0
KTAT 170925Z 25005KT 04/01 A3009 RMK A01 T00400006  RH  079%=      5-min Rain = 0
KTAT 170930Z 26005KT 04/01 A3009 RMK A01 T00390005  RH  079%=      5-min Rain = 0
KTAT 170935Z 27005KT 04/00 A3009 RMK A01 T00350003  RH  080%=      5-min Rain = 0
KTAT 170940Z 26007KT 03/01 A3009 RMK A01 T00340005  RH  083%=      5-min Rain = 0
KTAT 170945Z 26006KT 04/01 A3009 RMK A01 T00360009  RH  084%=      5-min Rain = 0
KTAT 170950Z 26006KT 04/01 A3009 RMK A01 T00360009  RH  084%=      5-min Rain = 0
KTAT 170955Z 26007KT 04/01 A3009 RMK A01 T00380012  RH  085%=      5-min Rain = 0
KTAT 171000Z 26007KT 04/01 A3008 RMK A01 T00410014  RH  084%=      5-min Rain = 0
KTAT 171005Z 26006KT 04/01 A3008 RMK A01 T00400011  RH  083%=      5-min Rain = 0
KTAT 171010Z 26006KT 04/01 A3008 RMK A01 T00370010  RH  084%=      5-min Rain = 0
KTAT 171015Z 26006KT 04/01 A3008 RMK A01 T00360011  RH  085%=      5-min Rain = 0
KTAT 171020Z 27006KT 04/01 A3008 RMK A01 T00350010  RH  085%=      5-min Rain = 0
KTAT 171025Z 28007KT 04/01 A3008 RMK A01 T00350012  RH  086%=      5-min Rain = 0
KTAT 171030Z 27008KT 04/02 A3008 RMK A01 T00390015  RH  086%=      5-min Rain = 0
KTAT 171035Z 26007KT 04/02 A3008 RMK A01 T00430018  RH  085%=      5-min Rain = 0
KTAT 171040Z 27007KT 05/02 A3008 RMK A01 T00450017  RH  083%=      5-min Rain = 0
KTAT 171045Z 27007KT 04/02 A3008 RMK A01 T00430017  RH  084%=      5-min Rain = 0
KTAT 171050Z 26006KT 04/02 A3008 RMK A01 T00420016  RH  084%=      5-min Rain = 0
KTAT 171055Z 26006KT 04/02 A3008 RMK A01 T00400015  RH  085%=      5-min Rain = 0
KTAT 171100Z 26007KT 04/01 A3008 RMK A01 T00380014  RH  085%=      5-min Rain = 0
KTAT 171105Z 25005KT 04/02 A3008 RMK A01 T00380015  RH  086%=      5-min Rain = 0
KTAT 171110Z 23005KT 04/02 A3008 RMK A01 T00390016  RH  086%=      5-min Rain = 0
KTAT 171115Z 22005KT 04/01 A3007 RMK A01 T00370013  RH  086%=      5-min Rain = 0
KTAT 171120Z 21005KT 03/01 A3007 RMK A01 T00330009  RH  086%=      5-min Rain = 0
KTAT 171125Z 21006KT 03/01 A3007 RMK A01 T00300008  RH  087%=      5-min Rain = 0
KTAT 171130Z 21007KT 03/01 A3007 RMK A01 T00310011  RH  088%=      5-min Rain = 0
KTAT 171135Z 21007KT 03/01 A3007 RMK A01 T00320013  RH  088%=      5-min Rain = 0
KTAT 171140Z 22008KT 03/02 A3008 RMK A01 T00340015  RH  088%=      5-min Rain = 0
KTAT 171145Z 21008KT 04/02 A3008 RMK A01 T00350017  RH  089%=      5-min Rain = 0
KTAT 171150Z 22008KT 04/02 A3008 RMK A01 T00410023  RH  089%=      5-min Rain = 0
KTAT 171155Z 22009KT 05/03 A3008 RMK A01 T00460025  RH  088%=      5-min Rain = 0
KTAT 171200Z 21009KT 05/03 A3008 RMK A01 T00510029  RH  087%=      5-min Rain = 0
KTAT 171205Z 22009KT 06/03 A3007 RMK A01 T00580034  RH  086%=      5-min Rain = 0
KTAT 171210Z 21008KT 06/04 A3007 RMK A01 T00640036  RH  084%=      5-min Rain = 0
KTAT 171215Z 21008KT 07/04 A3007 RMK A01 T00660035  RH  083%=      5-min Rain = 0
KTAT 171220Z 21008KT 06/04 A3007 RMK A01 T00640035  RH  083%=      5-min Rain = 0
KTAT 171225Z 22008KT 06/03 A3007 RMK A01 T00630034  RH  083%=      5-min Rain = 0
KTAT 171230Z 21007KT 06/03 A3007 RMK A01 T00630034  RH  083%=      5-min Rain = 0
KTAT 171235Z 21007KT 06/03 A3007 RMK A01 T00620033  RH  083%=      5-min Rain = 0
KTAT 171240Z 21008KT 06/03 A3007 RMK A01 T00600032  RH  084%=      5-min Rain = 0
KTAT 171245Z 21007KT 06/03 A3007 RMK A01 T00600032  RH  084%=      5-min Rain = 0
KTAT 171250Z 21007KT 06/03 A3007 RMK A01 T00600032  RH  084%=      5-min Rain = 0
KTAT 171255Z 21007KT 06/03 A3007 RMK A01 T00600032  RH  084%=      5-min Rain = 0
KTAT 171300Z 21007KT 06/03 A3007 RMK A01 T00590032  RH  084%=      5-min Rain = 0
KTAT 171305Z 21007KT 06/03 A3007 RMK A01 T00580032  RH  085%=      5-min Rain = 0
KTAT 171310Z 21007KT 06/03 A3007 RMK A01 T00610034  RH  084%=      5-min Rain = 0
KTAT 171315Z 21007KT 06/04 A3007 RMK A01 T00630035  RH  084%=      5-min Rain = 0
KTAT 171320Z 20006KT 07/04 A3007 RMK A01 T00650036  RH  083%=      5-min Rain = 0
KTAT 171325Z 20007KT 07/04 A3007 RMK A01 T00680038  RH  083%=      5-min Rain = 0
KTAT 171330Z 21007KT 07/04 A3007 RMK A01 T00720040  RH  082%=      5-min Rain = 0
KTAT 171335Z 21006KT 07/04 A3007 RMK A01 T00740042  RH  081%=      5-min Rain = 0
KTAT 171340Z 21006KT 08/04 A3008 RMK A01 T00790044  RH  081%=      5-min Rain = 0
KTAT 171345Z 21007KT 08/05 A3008 RMK A01 T00840047  RH  079%=      5-min Rain = 0
KTAT 171350Z 21007KT 09/05 A3008 RMK A01 T00890049  RH  077%=      5-min Rain = 0
KTAT 171355Z 20007KT 10/05 A3008 RMK A01 T00950050  RH  076%=      5-min Rain = 0
KTAT 171400Z 20007KT 10/05 A3008 RMK A01 T01000051  RH  073%=      5-min Rain = 0
KTAT 171405Z 20007KT 10/05 A3008 RMK A01 T01040053  RH  072%=      5-min Rain = 0
KTAT 171410Z 20008KT 11/05 A3008 RMK A01 T01090054  RH  070%=      5-min Rain = 0
KTAT 171415Z 20008KT 11/06 A3008 RMK A01 T01130055  RH  069%=      5-min Rain = 0
KTAT 171420Z 20009KT 12/06 A3008 RMK A01 T01180056  RH  067%=      5-min Rain = 0
KTAT 171425Z 21010KT 12/05 A3008 RMK A01 T01220054  RH  065%=      5-min Rain = 0
KTAT 171430Z 20011KT 13/05 A3008 RMK A01 T01250052  RH  062%=      5-min Rain = 0
KTAT 171435Z 20011KT 13/05 A3008 RMK A01 T01300052  RH  060%=      5-min Rain = 0
KTAT 171440Z 20011KT 14/05 A3009 RMK A01 T01350052  RH  059%=      5-min Rain = 0
KTAT 171445Z 20013KT 14/05 A3009 RMK A01 T01390050  RH  056%=      5-min Rain = 0
KTAT 171450Z 20012KT 14/05 A3009 RMK A01 T01420050  RH  055%=      5-min Rain = 0
KTAT 171455Z 20012KT 15/05 A3008 RMK A01 T01460049  RH  053%=      5-min Rain = 0
KTAT 171500Z 20015KT 15/04 A3008 RMK A01 T01470042  RH  050%=      5-min Rain = 0
KTAT 171505Z 20015KT 15/04 A3008 RMK A01 T01490040  RH  049%=      5-min Rain = 0
KTAT 171510Z 20013KT 15/04 A3008 RMK A01 T01520041  RH  048%=      5-min Rain = 0
KTAT 171515Z 20013KT 16/04 A3008 RMK A01 T01560040  RH  047%=      5-min Rain = 0
KTAT 171520Z 21013KT 16/04 A3008 RMK A01 T01600036  RH  045%=      5-min Rain = 0
KTAT 171525Z 20013G18KT 16/04 A3008 RMK A01 T01630036  RH  043%=      5-min Rain = 0
KTAT 171530Z 20014KT 16/03 A3008 RMK A01 T01640034  RH  043%=      5-min Rain = 0
KTAT 171535Z 21014KT 17/04 A3008 RMK A01 T01680035  RH  042%=      5-min Rain = 0
KTAT 171540Z 21013KT 17/04 A3008 RMK A01 T01710036  RH  041%=      5-min Rain = 0
KTAT 171545Z 21013KT 17/04 A3007 RMK A01 T01740036  RH  041%=      5-min Rain = 0
KTAT 171550Z 21013KT 18/04 A3007 RMK A01 T01770035  RH  040%=      5-min Rain = 0
KTAT 171555Z 21013KT 18/04 A3007 RMK A01 T01790035  RH  039%=      5-min Rain = 0
KTAT 171600Z 20012G17KT 18/04 A3007 RMK A01 T01830036  RH  038%=      5-min Rain = 0
KTAT 171605Z 21012KT 19/03 A3007 RMK A01 T01850032  RH  037%=      5-min Rain = 0
KTAT 171610Z 21012KT 19/03 A3007 RMK A01 T01870032  RH  036%=      5-min Rain = 0
KTAT 171615Z 21012KT 19/03 A3006 RMK A01 T01890029  RH  035%=      5-min Rain = 0
KTAT 171620Z 21012KT 19/03 A3006 RMK A01 T01920029  RH  034%=      5-min Rain = 0
KTAT 171625Z 21013KT 20/03 A3006 RMK A01 T01950028  RH  033%=      5-min Rain = 0
KTAT 171630Z 21012KT 20/03 A3006 RMK A01 T01960026  RH  033%=      5-min Rain = 0
KTAT 171635Z 21011G17KT 20/03 A3006 RMK A01 T01980027  RH  033%=      5-min Rain = 0
KTAT 171640Z 22011KT 20/03 A3006 RMK A01 T02030026  RH  031%=      5-min Rain = 0
KTAT 171645Z 22011KT 20/02 A3005 RMK A01 T02030024  RH  031%=      5-min Rain = 0
KTAT 171650Z 22012KT 21/02 A3005 RMK A01 T02050024  RH  031%=      5-min Rain = 0
KTAT 171655Z 22011KT 21/02 A3005 RMK A01 T02070024  RH  030%=      5-min Rain = 0
KTAT 171700Z 22012KT 21/03 A3005 RMK A01 T02100026  RH  030%=      5-min Rain = 0
KTAT 171705Z 22011KT 21/03 A3005 RMK A01 T02120025  RH  030%=      5-min Rain = 0
KTAT 171710Z 22011KT 21/03 A3005 RMK A01 T02130026  RH  030%=      5-min Rain = 0
KTAT 171715Z 22011KT 22/02 A3005 RMK A01 T02160023  RH  028%=      5-min Rain = 0
KTAT 171720Z 22012KT 22/02 A3005 RMK A01 T02160020  RH  028%=      5-min Rain = 0
KTAT 171725Z 22011KT 22/02 A3004 RMK A01 T02200024  RH  028%=      5-min Rain = 0
KTAT 171730Z 23011KT 22/02 A3004 RMK A01 T02190016  RH  026%=      5-min Rain = 0
KTAT 171735Z 24010KT 22/02 A3004 RMK A01 T02210017  RH  027%=      5-min Rain = 0
KTAT 171740Z 22011KT 23/01 A3004 RMK A01 T02260013  RH  025%=      5-min Rain = 0
KTAT 171745Z 23012KT 23/02 A3004 RMK A01 T02270015  RH  025%=      5-min Rain = 0
KTAT 171750Z 23010G15KT 23/01 A3003 RMK A01 T02270014  RH  025%=      5-min Rain = 0
KTAT 171755Z 23011KT 23/02 A3003 RMK A01 T02290016  RH  025%=      5-min Rain = 0
KTAT 171800Z 22011KT 23/02 A3003 RMK A01 T02310017  RH  025%=      5-min Rain = 0
KTAT 171805Z 22011KT 23/02 A3002 RMK A01 T02320015  RH  024%=      5-min Rain = 0
KTAT 171810Z 22010KT 24/01 A3002 RMK A01 T02350011  RH  023%=      5-min Rain = 0
KTAT 171815Z 22010KT 23/01 A3002 RMK A01 T02340008  RH  023%=      5-min Rain = 0
KTAT 171820Z 22009G15KT 24/01 A3001 RMK A01 T02390010  RH  022%=      5-min Rain = 0
KTAT 171825Z 23009G14KT 24/01 A3001 RMK A01 T02380006  RH  022%=      5-min Rain = 0
KTAT 171830Z 22010G15KT 24/00 A3001 RMK A01 T02400003  RH  021%=      5-min Rain = 0
KTAT 171835Z 21011KT 24/00 A30 RMK A01 T02420003  RH  021%=      5-min Rain = 0
KTAT 171840Z 22011KT 24/01 A30 RMK A01 T02440005  RH  021%=      5-min Rain = 0
KTAT 171845Z 21011G16KT 24/00 A30 RMK A01 T02420003  RH  021%=      5-min Rain = 0
KTAT 171850Z 22011KT 25/M00 A2999 RMK A01 T02461001  RH  020%=      5-min Rain = 0
KTAT 171855Z 21010KT 25/M00 A2999 RMK A01 T02471003  RH  019%=      5-min Rain = 0
KTAT 171900Z 22011G16KT 25/00 A2998 RMK A01 T02490002  RH  020%=      5-min Rain = 0
KTAT 171905Z 21010KT 25/01 A2998 RMK A01 T02500007  RH  021%=      5-min Rain = 0
KTAT 171910Z 22011KT 25/M00 A2998 RMK A01 T02501003  RH  019%=      5-min Rain = 0
KTAT 171915Z 21011KT 25/00 A2997 RMK A01 T02510003  RH  020%=      5-min Rain = 0
KTAT 171920Z 20011KT 25/00 A2997 RMK A01 T02540003  RH  020%=      5-min Rain = 0
KTAT 171925Z 22011KT 25/M00 A2997 RMK A01 T02541002  RH  019%=      5-min Rain = 0
KTAT 171930Z 20011KT 25/M01 A2996 RMK A01 T02531007  RH  018%=      5-min Rain = 0
KTAT 171935Z 22011KT 25/M01 A2996 RMK A01 T02541006  RH  018%=      5-min Rain = 0
KTAT 171940Z 21011G16KT 25/M01 A2996 RMK A01 T02531010  RH  018%=      5-min Rain = 0
KTAT 171945Z 20011KT 26/M01 A2995 RMK A01 T02561005  RH  018%=      5-min Rain = 0
KTAT 171950Z 21012KT 26/M01 A2995 RMK A01 T02571008  RH  018%=      5-min Rain = 0
KTAT 171955Z 22011G16KT 26/M01 A2995 RMK A01 T02551008  RH  018%=      5-min Rain = 0
KTAT 172000Z 22012G21KT 26/00 A2994 RMK A01 T02570003  RH  019%=      5-min Rain = 0
KTAT 172005Z 21011KT 26/M00 A2994 RMK A01 T02591001  RH  018%=      5-min Rain = 0
KTAT 172010Z 20011G16KT 26/M00 A2994 RMK A01 T02591003  RH  018%=      5-min Rain = 0
KTAT 172015Z 22010G16KT 26/M01 A2993 RMK A01 T02581008  RH  018%=      5-min Rain = 0
KTAT 172020Z 21013G18KT 26/M01 A2993 RMK A01 T02571008  RH  018%=      5-min Rain = 0
KTAT 172025Z 21011G20KT 26/00 A2993 RMK A01 T025700-0  RH  019%=      5-min Rain = 0
KTAT 172030Z 21013KT 26/M01 A2993 RMK A01 T02591012  RH  017%=      5-min Rain = 0
KTAT 172035Z 21014KT 26/M01 A2993 RMK A01 T02581013  RH  017%=      5-min Rain = 0
KTAT 172040Z 20014KT 26/M02 A2993 RMK A01 T02581016  RH  017%=      5-min Rain = 0
KTAT 172045Z 19011G18KT 26/M00 A2992 RMK A01 T02601001  RH  018%=      5-min Rain = 0
KTAT 172050Z 21013G18KT 26/M02 A2992 RMK A01 T02611015  RH  016%=      5-min Rain = 0
KTAT 172055Z 21012KT 26/M02 A2992 RMK A01 T02611020  RH  016%=      5-min Rain = 0
KTAT 172100Z 21014KT 26/M02 A2992 RMK A01 T02601022  RH  016%=      5-min Rain = 0
KTAT 172105Z 21012KT 26/M02 A2992 RMK A01 T02591019  RH  016%=      5-min Rain = 0
KTAT 172110Z 20011G16KT 26/M01 A2991 RMK A01 T02621009  RH  017%=      5-min Rain = 0
KTAT 172115Z 21014KT 26/M01 A2991 RMK A01 T02621011  RH  017%=      5-min Rain = 0
KTAT 172120Z 21013KT 26/M02 A2991 RMK A01 T02591015  RH  017%=      5-min Rain = 0
KTAT 172125Z 22012G18KT 26/M02 A2991 RMK A01 T02601017  RH  016%=      5-min Rain = 0
KTAT 172130Z 20012KT 26/M02 A2991 RMK A01 T02601017  RH  016%=      5-min Rain = 0
KTAT 172135Z 19014G19KT 26/M02 A2991 RMK A01 T02601016  RH  016%=      5-min Rain = 0
KTAT 172140Z 18011KT 26/M01 A299 RMK A01 T02621013  RH  016%=      5-min Rain = 0
KTAT 172145Z 19013KT 26/M02 A299 RMK A01 T02631019  RH  016%=      5-min Rain = 0
KTAT 172150Z 20012G20KT 26/M02 A299 RMK A01 T02611021  RH  016%=      5-min Rain = 0
KTAT 172155Z 20011G17KT 26/M02 A299 RMK A01 T02611018  RH  016%=      5-min Rain = 0
KTAT 172200Z 19013KT 26/M02 A299 RMK A01 T02611015  RH  016%=      5-min Rain = 0
KTAT 172205Z 19013KT 26/M01 A299 RMK A01 T02601014  RH  017%=      5-min Rain = 0
KTAT 172210Z 19012KT 26/M02 A299 RMK A01 T02591016  RH  016%=      5-min Rain = 0
KTAT 172215Z 17012KT 26/M00 A299 RMK A01 T02591001  RH  018%=      5-min Rain = 0
KTAT 172220Z 17014KT 26/M01 A299 RMK A01 T02591008  RH  017%=      5-min Rain = 0
KTAT 172225Z 18014KT 26/M01 A299 RMK A01 T02571010  RH  017%=      5-min Rain = 0
KTAT 172230Z 18015KT 26/M01 A299 RMK A01 T02551011  RH  018%=      5-min Rain = 0
KTAT 172235Z 18012KT 25/M00 A299 RMK A01 T02541004  RH  019%=      5-min Rain = 0
KTAT 172240Z 18014KT 25/M02 A2989 RMK A01 T02541016  RH  017%=      5-min Rain = 0
KTAT 172245Z 18014KT 25/M01 A2989 RMK A01 T02521010  RH  018%=      5-min Rain = 0
KTAT 172250Z 18012KT 25/00 A2989 RMK A01 T025200-0  RH  019%=      5-min Rain = 0
KTAT 172255Z 18014KT 25/M00 A2988 RMK A01 T02521001  RH  019%=      5-min Rain = 0
KTAT 172300Z 18012G17KT 25/M00 A2988 RMK A01 T02461001  RH  020%=      5-min Rain = 0
KTAT 172305Z 17012KT 24/M00 A2988 RMK A01 T02381001  RH  021%=      5-min Rain = 0
KTAT 172310Z 17012KT 24/M01 A2988 RMK A01 T02381006  RH  020%=      5-min Rain = 0
KTAT 172315Z 17014KT 24/M00 A2988 RMK A01 T02421004  RH  020%=      5-min Rain = 0
KTAT 172320Z 17013KT 24/00 A2988 RMK A01 T02410002  RH  021%=      5-min Rain = 0
KTAT 172325Z 17012KT 24/01 A2988 RMK A01 T02380005  RH  022%=      5-min Rain = 0
KTAT 172330Z 18012KT 24/01 A2988 RMK A01 T02350006  RH  022%=      5-min Rain = 0
KTAT 172335Z 18011KT 23/01 A2988 RMK A01 T02310007  RH  023%=      5-min Rain = 0
KTAT 172340Z 18011KT 23/01 A2988 RMK A01 T02270010  RH  024%=      5-min Rain = 0
KTAT 172345Z 19012KT 22/01 A2988 RMK A01 T02230008  RH  024%=      5-min Rain = 0
KTAT 172350Z 19011KT 22/01 A2988 RMK A01 T02190006  RH  025%=      5-min Rain = 0
KTAT 172355Z 18010KT 21/01 A2988 RMK A01 T02140007  RH  026%=      5-min Rain = 0
KTAT 180000Z 17010KT 21/01 A2988 RMK A01 T02110010  RH  027%=      5-min Rain = 0
KTAT 180005Z 17009KT 21/02 A2988 RMK A01 T02070015  RH  028%=      5-min Rain = 0
KTAT 180010Z 17008KT 20/02 A2988 RMK A01 T02010018  RH  030%=      5-min Rain = 0
KTAT 180015Z 17008KT 19/02 A2988 RMK A01 T01920020  RH  032%=      5-min Rain = 0
KTAT 180020Z 17009KT 19/02 A2988 RMK A01 T01860021  RH  034%=      5-min Rain = 0
KTAT 180025Z 17008KT 18/02 A2988 RMK A01 T01820023  RH  035%=      5-min Rain = 0
KTAT 180030Z 17008KT 18/03 A2988 RMK A01 T01770025  RH  037%=      5-min Rain = 0
KTAT 180035Z 16009KT 17/03 A2988 RMK A01 T01710029  RH  039%=      5-min Rain = 0
KTAT 180040Z 16009KT 17/03 A2988 RMK A01 T01660031  RH  041%=      5-min Rain = 0
KTAT 180045Z 16009KT 17/03 A2988 RMK A01 T01650032  RH  042%=      5-min Rain = 0
KTAT 180050Z 16009KT 16/03 A2987 RMK A01 T01630032  RH  042%=      5-min Rain = 0
KTAT 180055Z 16009KT 16/03 A2988 RMK A01 T01590032  RH  044%=      5-min Rain = 0
KTAT 180100Z 17009KT 15/03 A2988 RMK A01 T01540033  RH  045%=      5-min Rain = 0
KTAT 180105Z 17009KT 15/03 A2988 RMK A01 T01530032  RH  045%=      5-min Rain = 0
KTAT 180110Z 17009KT 16/03 A2988 RMK A01 T01550031  RH  044%=      5-min Rain = 0
KTAT 180115Z 17010KT 16/03 A2988 RMK A01 T01550030  RH  044%=      5-min Rain = 0
KTAT 180120Z 16010KT 16/03 A2988 RMK A01 T01560029  RH  043%=      5-min Rain = 0
KTAT 180125Z 16011KT 16/03 A2988 RMK A01 T01580027  RH  042%=      5-min Rain = 0
KTAT 180130Z 16011KT 16/03 A2988 RMK A01 T01600027  RH  041%=      5-min Rain = 0
KTAT 180135Z 16010KT 16/03 A2988 RMK A01 T01610027  RH  041%=      5-min Rain = 0
KTAT 180140Z 16010KT 16/03 A2988 RMK A01 T01580027  RH  042%=      5-min Rain = 0
KTAT 180145Z 16009KT 15/03 A2988 RMK A01 T01530028  RH  044%=      5-min Rain = 0
KTAT 180150Z 16009KT 15/03 A2988 RMK A01 T01480028  RH  045%=      5-min Rain = 0
KTAT 180155Z 16009KT 15/03 A2988 RMK A01 T01450029  RH  046%=      5-min Rain = 0
KTAT 180200Z 16009KT 14/03 A2988 RMK A01 T01430030  RH  047%=      5-min Rain = 0
KTAT 180205Z 16010KT 14/03 A2988 RMK A01 T01410031  RH  048%=      5-min Rain = 0
KTAT 180210Z 16010KT 14/03 A2988 RMK A01 T01400031  RH  049%=      5-min Rain = 0
KTAT 180215Z 16010KT 14/03 A2988 RMK A01 T01410032  RH  049%=      5-min Rain = 0
KTAT 180220Z 17010KT 14/03 A2988 RMK A01 T01430032  RH  048%=      5-min Rain = 0
KTAT 180225Z 17010KT 15/03 A2988 RMK A01 T01450032  RH  047%=      5-min Rain = 0
KTAT 180230Z 17010KT 15/03 A2988 RMK A01 T01450032  RH  048%=      5-min Rain = 0
KTAT 180235Z 17010KT 15/03 A2988 RMK A01 T01450033  RH  048%=      5-min Rain = 0
KTAT 180240Z 17010KT 14/03 A2988 RMK A01 T01440033  RH  048%=      5-min Rain = 0
KTAT 180245Z 17010KT 15/03 A2988 RMK A01 T01450034  RH  048%=      5-min Rain = 0
KTAT 180250Z 17010KT 15/03 A2988 RMK A01 T01460034  RH  048%=      5-min Rain = 0
KTAT 180255Z 18009KT 15/03 A2988 RMK A01 T01480034  RH  047%=      5-min Rain = 0
KTAT 180300Z 18009KT 15/03 A2988 RMK A01 T01480034  RH  047%=      5-min Rain = 0
KTAT 180305Z 18009KT 15/03 A2989 RMK A01 T01480034  RH  047%=      5-min Rain = 0
KTAT 180310Z 18009KT 15/04 A2989 RMK A01 T01450035  RH  048%=      5-min Rain = 0
KTAT 180315Z 18008KT 14/04 A2989 RMK A01 T01410035  RH  050%=      5-min Rain = 0
KTAT 180320Z 18008KT 14/04 A2988 RMK A01 T01360036  RH  052%=      5-min Rain = 0
KTAT 180325Z 18008KT 13/04 A2989 RMK A01 T01330037  RH  053%=      5-min Rain = 0
KTAT 180330Z 17008KT 13/04 A2989 RMK A01 T01300037  RH  054%=      5-min Rain = 0
KTAT 180335Z 17008KT 13/04 A2989 RMK A01 T01280037  RH  055%=      5-min Rain = 0
KTAT 180340Z 18007KT 13/04 A2989 RMK A01 T01260038  RH  056%=      5-min Rain = 0
KTAT 180345Z 17008KT 12/04 A2989 RMK A01 T01230038  RH  057%=      5-min Rain = 0
KTAT 180350Z 17008KT 12/04 A2988 RMK A01 T01220037  RH  057%=      5-min Rain = 0
KTAT 180355Z 17010KT 13/04 A2988 RMK A01 T01270036  RH  055%=      5-min Rain = 0
KTAT 180400Z 17010KT 14/04 A2988 RMK A01 T01360035  RH  051%=      5-min Rain = 0
KTAT 180405Z 17009KT 14/03 A2989 RMK A01 T01400034  RH  050%=      5-min Rain = 0
KTAT 180410Z 18010KT 14/03 A2989 RMK A01 T01430033  RH  048%=      5-min Rain = 0
KTAT 180415Z 18009KT 15/03 A2989 RMK A01 T01450033  RH  048%=      5-min Rain = 0
KTAT 180420Z 18009KT 14/03 A2989 RMK A01 T01430033  RH  048%=      5-min Rain = 0
KTAT 180425Z 18009KT 14/03 A2989 RMK A01 T01420033  RH  049%=      5-min Rain = 0
KTAT 180430Z 18009KT 14/03 A2988 RMK A01 T01400033  RH  049%=      5-min Rain = 0
KTAT 180435Z 18010KT 14/03 A2988 RMK A01 T01400033  RH  050%=      5-min Rain = 0
KTAT 180440Z 17010KT 14/03 A2988 RMK A01 T01410033  RH  049%=      5-min Rain = 0
KTAT 180445Z 18011KT 14/03 A2988 RMK A01 T01440032  RH  048%=      5-min Rain = 0
KTAT 180450Z 18010KT 15/03 A2988 RMK A01 T01450032  RH  048%=      5-min Rain = 0
KTAT 180455Z 18010KT 14/03 A2988 RMK A01 T01430032  RH  048%=      5-min Rain = 0

Page generated in 0.0091 seconds.